Time;durP1;ratioP1;P1;durP2;ratioP2;P2;SDS_P1;SDS_P2;PMS_P1;PMS_P2;Temp;Humidity;BMP_temperature;BMP_pressure;BME280_temperature;BME280_humidity;BME280_pressure;Samples;Min_cycle;Max_cycle;Signal;HPM_P1;HPM_P2
2023/12/21 00:00:21;;;;;;;3.47;1.63;;;;;;;;;;5075717;28;20490;-60
2023/12/21 00:02:49;;;;;;;3.03;1.60;;;;;;;;;;5075717;28;20439;-60
2023/12/21 00:05:16;;;;;;;2.60;1.40;;;;;;;;;;5075942;28;20443;-60
2023/12/21 00:07:44;;;;;;;2.73;2.10;;;;;;;;;;5075845;28;20451;-60
2023/12/21 00:10:12;;;;;;;2.53;2.37;;;;;;;;;;5075697;28;20451;-60
2023/12/21 00:12:39;;;;;;;2.70;2.50;;;;;;;;;;5075709;28;20898;-60
2023/12/21 00:15:06;;;;;;;2.53;2.33;;;;;;;;;;5075555;28;20443;-60
2023/12/21 00:17:33;;;;;;;4.00;2.80;;;;;;;;;;5075776;28;20530;-60
2023/12/21 00:20:00;;;;;;;2.50;2.30;;;;;;;;;;5075504;28;20574;-60
2023/12/21 00:22:27;;;;;;;2.60;2.40;;;;;;;;;;5075662;28;20813;-61
2023/12/21 00:24:55;;;;;;;4.30;2.87;;;;;;;;;;5075419;28;20454;-60
2023/12/21 00:27:22;;;;;;;2.83;2.53;;;;;;;;;;5075397;28;20447;-60
2023/12/21 00:29:49;;;;;;;3.17;2.87;;;;;;;;;;5075282;28;20879;-60
2023/12/21 00:32:16;;;;;;;3.90;2.90;;;;;;;;;;5075467;28;20453;-60
2023/12/21 00:34:43;;;;;;;5.77;2.63;;;;;;;;;;5075374;28;20473;-60
2023/12/21 00:37:10;;;;;;;3.00;2.80;;;;;;;;;;5075407;28;20534;-60
2023/12/21 00:39:37;;;;;;;3.37;2.80;;;;;;;;;;5075111;28;20485;-60
2023/12/21 00:42:06;;;;;;;3.30;3.07;;;;;;;;;;5075110;28;20516;-60
2023/12/21 00:44:33;;;;;;;2.80;2.60;;;;;;;;;;5074942;28;20446;-60
2023/12/21 00:47:02;;;;;;;3.47;2.87;;;;;;;;;;5074933;28;20534;-60
2023/12/21 00:49:29;;;;;;;3.00;2.73;;;;;;;;;;5075020;28;20450;-60
2023/12/21 00:51:56;;;;;;;2.77;2.57;;;;;;;;;;5074999;28;20553;-60
2023/12/21 00:54:23;;;;;;;6.13;3.03;;;;;;;;;;5074668;28;20440;-60
2023/12/21 00:56:50;;;;;;;3.13;2.83;;;;;;;;;;5074843;28;20557;-60
2023/12/21 00:59:18;;;;;;;4.63;2.83;;;;;;;;;;5074673;28;20471;-60
2023/12/21 01:01:45;;;;;;;3.60;2.50;;;;;;;;;;5075040;28;20443;-60
2023/12/21 01:04:12;;;;;;;5.00;2.70;;;;;;;;;;5074778;28;20443;-61
2023/12/21 01:06:42;;;;;;;2.40;2.20;;;;;;;;;;5074545;28;20479;-60
2023/12/21 01:09:09;;;;;;;2.97;2.40;;;;;;;;;;5074547;28;20939;-61
2023/12/21 01:11:36;;;;;;;2.53;2.10;;;;;;;;;;5074743;28;20440;-60
2023/12/21 01:14:03;;;;;;;2.90;2.60;;;;;;;;;;5074640;28;20452;-60
2023/12/21 01:16:31;;;;;;;2.20;2.03;;;;;;;;;;5074532;28;20878;-61
2023/12/21 01:18:58;;;;;;;2.33;2.20;;;;;;;;;;5074575;28;20534;-60
2023/12/21 01:21:25;;;;;;;2.33;2.10;;;;;;;;;;5074323;28;20444;-60
2023/12/21 01:23:52;;;;;;;1.90;1.80;;;;;;;;;;5074711;28;20493;-60
2023/12/21 01:26:19;;;;;;;2.10;1.93;;;;;;;;;;5074346;28;20531;-60
2023/12/21 01:28:46;;;;;;;1.80;1.70;;;;;;;;;;5074346;28;20546;-60
2023/12/21 01:31:13;;;;;;;2.50;2.30;;;;;;;;;;5074139;28;20538;-61
2023/12/21 01:33:41;;;;;;;1.97;1.87;;;;;;;;;;5074043;28;20449;-60
2023/12/21 01:36:08;;;;;;;4.00;1.70;;;;;;;;;;5074056;28;20445;-60
2023/12/21 01:38:35;;;;;;;3.20;2.27;;;;;;;;;;5073879;28;20476;-61
2023/12/21 01:41:02;;;;;;;2.17;1.97;;;;;;;;;;5073939;28;20483;-60
2023/12/21 01:43:29;;;;;;;2.43;2.00;;;;;;;;;;5074016;28;20554;-60
2023/12/21 01:45:56;;;;;;;1.73;1.63;;;;;;;;;;5074106;28;20454;-60
2023/12/21 01:48:23;;;;;;;1.77;1.67;;;;;;;;;;5073788;28;20450;-60
2023/12/21 01:50:52;;;;;;;2.13;1.90;;;;;;;;;;5073685;28;20447;-61
2023/12/21 01:53:19;;;;;;;2.00;1.90;;;;;;;;;;5074177;28;20454;-60
2023/12/21 01:55:47;;;;;;;3.23;1.87;;;;;;;;;;5073721;28;20467;-60
2023/12/21 01:58:14;;;;;;;1.60;1.50;;;;;;;;;;5073376;28;20443;-61
2023/12/21 02:00:41;;;;;;;1.60;1.50;;;;;;;;;;5073847;28;20479;-60
2023/12/21 02:03:08;;;;;;;1.97;1.83;;;;;;;;;;5073685;28;20871;-60
2023/12/21 02:05:35;;;;;;;1.60;1.50;;;;;;;;;;5073376;28;21025;-61
2023/12/21 02:08:03;;;;;;;1.70;1.60;;;;;;;;;;5073651;28;20508;-60
2023/12/21 02:10:30;;;;;;;1.77;1.67;;;;;;;;;;5073584;28;20444;-60
2023/12/21 02:12:57;;;;;;;2.60;1.30;;;;;;;;;;5073440;28;20882;-60
2023/12/21 02:15:24;;;;;;;1.43;1.33;;;;;;;;;;5073386;28;20447;-60
2023/12/21 02:17:51;;;;;;;1.50;1.40;;;;;;;;;;5073240;28;20444;-61
2023/12/21 02:20:18;;;;;;;4.70;1.50;;;;;;;;;;5073210;28;21061;-60
2023/12/21 02:22:45;;;;;;;1.20;1.10;;;;;;;;;;5073382;28;20538;-60
2023/12/21 02:25:14;;;;;;;2.00;1.00;;;;;;;;;;5073376;28;20455;-60
2023/12/21 02:27:41;;;;;;;1.50;1.40;;;;;;;;;;5073183;28;20526;-61
2023/12/21 02:30:08;;;;;;;1.47;1.27;;;;;;;;;;5073199;28;20868;-60
2023/12/21 02:32:35;;;;;;;1.77;1.67;;;;;;;;;;5073026;28;20447;-60
2023/12/21 02:35:02;;;;;;;1.50;1.40;;;;;;;;;;5073204;28;20530;-60
2023/12/21 02:37:29;;;;;;;1.73;1.50;;;;;;;;;;5073204;28;20447;-60
2023/12/21 02:39:56;;;;;;;1.17;1.07;;;;;;;;;;5073039;28;20472;-61
2023/12/21 02:42:24;;;;;;;1.17;1.07;;;;;;;;;;5073122;28;20439;-60
2023/12/21 02:44:51;;;;;;;1.10;1.00;;;;;;;;;;5072977;28;20439;-60
2023/12/21 02:47:18;;;;;;;1.43;1.03;;;;;;;;;;5072868;28;20493;-60
2023/12/21 02:49:45;;;;;;;1.10;1.00;;;;;;;;;;5073029;28;20534;-61
2023/12/21 02:52:12;;;;;;;1.30;1.20;;;;;;;;;;5073073;28;20530;-61
2023/12/21 02:54:39;;;;;;;1.30;1.13;;;;;;;;;;5072773;28;20552;-61
2023/12/21 02:57:06;;;;;;;1.27;1.10;;;;;;;;;;5072968;28;20658;-61
2023/12/21 02:59:34;;;;;;;2.80;1.40;;;;;;;;;;5072664;28;20996;-61
2023/12/21 03:02:01;;;;;;;1.20;1.10;;;;;;;;;;5072757;28;20443;-61
2023/12/21 03:04:28;;;;;;;1.10;1.00;;;;;;;;;;5072939;28;20554;-61
2023/12/21 03:06:55;;;;;;;1.67;1.20;;;;;;;;;;5072858;28;20446;-62
2023/12/21 03:09:22;;;;;;;0.90;0.90;;;;;;;;;;5075399;28;20444;-61
2023/12/21 03:11:49;;;;;;;1.20;1.10;;;;;;;;;;5076852;28;20530;-61
2023/12/21 03:14:16;;;;;;;1.20;1.10;;;;;;;;;;5076668;28;20443;-61
2023/12/21 03:16:44;;;;;;;0.83;0.83;;;;;;;;;;5076936;28;20504;-61
2023/12/21 03:19:12;;;;;;;2.27;1.07;;;;;;;;;;5077097;28;20449;-61
2023/12/21 03:21:39;;;;;;;1.23;1.13;;;;;;;;;;5076463;28;20479;-61
2023/12/21 03:24:06;;;;;;;1.40;1.00;;;;;;;;;;5076671;28;20530;-61
2023/12/21 03:26:33;;;;;;;0.90;0.80;;;;;;;;;;5076532;28;20447;-61
2023/12/21 03:29:00;;;;;;;1.00;0.90;;;;;;;;;;5076885;28;20454;-61
2023/12/21 03:31:27;;;;;;;1.37;1.03;;;;;;;;;;5076329;28;20968;-61
2023/12/21 03:33:55;;;;;;;1.33;1.00;;;;;;;;;;5076486;28;20450;-61
2023/12/21 03:36:22;;;;;;;0.90;0.90;;;;;;;;;;5076471;28;20447;-61
2023/12/21 03:38:49;;;;;;;1.10;1.00;;;;;;;;;;5076293;28;20446;-61
2023/12/21 03:41:16;;;;;;;0.90;0.90;;;;;;;;;;5076073;28;20573;-62
2023/12/21 03:43:43;;;;;;;1.03;1.00;;;;;;;;;;5076160;28;20447;-61
2023/12/21 03:46:10;;;;;;;1.20;1.10;;;;;;;;;;5076307;28;20447;-61
2023/12/21 03:48:37;;;;;;;1.20;1.10;;;;;;;;;;5076185;28;20798;-61
2023/12/21 03:51:06;;;;;;;1.27;1.17;;;;;;;;;;5075935;28;20508;-61
2023/12/21 03:53:33;;;;;;;1.10;1.00;;;;;;;;;;5076077;28;20530;-61
2023/12/21 03:56:00;;;;;;;1.33;1.23;;;;;;;;;;5075938;28;20467;-61
2023/12/21 03:58:27;;;;;;;1.30;1.20;;;;;;;;;;5076111;28;20443;-61
2023/12/21 04:00:54;;;;;;;1.20;1.10;;;;;;;;;;5075976;28;20574;-61
2023/12/21 04:03:21;;;;;;;1.30;1.20;;;;;;;;;;5075997;28;20493;-61
2023/12/21 04:05:47;;;;;;;1.30;1.20;;;;;;;;;;5075798;28;20478;-61
2023/12/21 04:08:21;;;;;;;1.20;1.10;;;;;;;;;;5075801;28;20450;-61
2023/12/21 04:10:47;;;;;;;1.30;1.20;;;;;;;;;;5075620;28;20541;-60
2023/12/21 04:13:15;;;;;;;1.40;1.30;;;;;;;;;;5075839;28;20859;-61
2023/12/21 04:15:42;;;;;;;2.57;1.70;;;;;;;;;;5075728;28;20547;-61
2023/12/21 04:18:09;;;;;;;1.77;1.27;;;;;;;;;;5075660;28;20528;-61
2023/12/21 04:20:36;;;;;;;1.10;1.00;;;;;;;;;;5074837;28;20475;-61
2023/12/21 04:23:03;;;;;;;1.10;1.00;;;;;;;;;;5075400;28;20443;-61
2023/12/21 04:25:31;;;;;;;1.47;1.10;;;;;;;;;;5075557;28;20444;-61
2023/12/21 04:27:58;;;;;;;0.90;0.90;;;;;;;;;;5075555;28;20478;-61
2023/12/21 04:30:25;;;;;;;1.10;1.00;;;;;;;;;;5075583;28;20534;-61
2023/12/21 04:32:52;;;;;;;1.10;1.00;;;;;;;;;;5075332;28;20538;-61
2023/12/21 04:35:19;;;;;;;1.27;1.00;;;;;;;;;;5075274;28;20806;-61
2023/12/21 04:37:46;;;;;;;1.20;1.10;;;;;;;;;;5075087;28;21018;-61
2023/12/21 04:40:13;;;;;;;1.20;1.10;;;;;;;;;;5075244;28;20558;-61
2023/12/21 04:42:42;;;;;;;1.30;1.20;;;;;;;;;;5075162;28;20448;-61
2023/12/21 04:45:09;;;;;;;1.30;1.20;;;;;;;;;;5075097;28;20539;-61
2023/12/21 04:47:37;;;;;;;0.97;0.97;;;;;;;;;;5075109;28;20447;-61
2023/12/21 04:50:04;;;;;;;1.30;1.20;;;;;;;;;;5074903;28;20501;-61
2023/12/21 04:52:31;;;;;;;1.30;1.20;;;;;;;;;;5075107;28;20866;-61
2023/12/21 04:54:58;;;;;;;1.03;1.03;;;;;;;;;;5075167;28;20558;-61
2023/12/21 04:57:25;;;;;;;1.30;1.10;;;;;;;;;;5074840;28;20530;-62
2023/12/21 04:59:53;;;;;;;1.40;1.30;;;;;;;;;;5074782;28;20536;-61
2023/12/21 05:02:20;;;;;;;1.67;1.10;;;;;;;;;;5074743;28;20497;-61
2023/12/21 05:04:47;;;;;;;1.00;1.00;;;;;;;;;;5074553;28;20798;-61
2023/12/21 05:07:14;;;;;;;1.43;1.33;;;;;;;;;;5074755;28;20450;-61
2023/12/21 05:09:41;;;;;;;1.10;1.00;;;;;;;;;;5074664;28;20542;-61
2023/12/21 05:12:08;;;;;;;1.80;1.70;;;;;;;;;;5074576;28;20450;-62
2023/12/21 05:14:35;;;;;;;1.23;1.13;;;;;;;;;;5074553;28;20446;-61
2023/12/21 05:17:03;;;;;;;0.93;0.93;;;;;;;;;;5074410;28;20546;-62
2023/12/21 05:19:30;;;;;;;1.00;1.00;;;;;;;;;;5074503;28;20442;-62
2023/12/21 05:21:57;;;;;;;1.27;1.17;;;;;;;;;;5074327;28;20600;-62
2023/12/21 05:24:24;;;;;;;1.10;1.00;;;;;;;;;;5074418;28;20526;-61
2023/12/21 05:26:51;;;;;;;2.03;1.10;;;;;;;;;;5074317;28;20504;-61
2023/12/21 05:29:18;;;;;;;1.20;1.10;;;;;;;;;;5074229;28;20530;-61
2023/12/21 05:31:45;;;;;;;1.63;0.90;;;;;;;;;;5073156;28;20511;-61
2023/12/21 05:34:13;;;;;;;1.17;1.07;;;;;;;;;;5074212;28;20439;-61
2023/12/21 05:36:40;;;;;;;1.10;1.00;;;;;;;;;;5074219;28;20535;-61
2023/12/21 05:39:09;;;;;;;1.67;1.07;;;;;;;;;;5073989;28;20446;-61
2023/12/21 05:41:36;;;;;;;1.10;1.00;;;;;;;;;;5073954;28;20480;-61
2023/12/21 05:44:04;;;;;;;0.93;0.90;;;;;;;;;;5073930;28;20526;-61
2023/12/21 05:46:31;;;;;;;1.00;1.00;;;;;;;;;;5073786;28;20538;-61
2023/12/21 05:48:58;;;;;;;1.07;1.07;;;;;;;;;;5074095;28;20443;-61
2023/12/21 05:51:26;;;;;;;2.53;1.23;;;;;;;;;;5073819;28;20530;-61
2023/12/21 05:53:53;;;;;;;1.10;1.00;;;;;;;;;;5073608;28;20967;-61
2023/12/21 05:56:20;;;;;;;1.50;1.40;;;;;;;;;;5073511;28;20562;-61
2023/12/21 05:58:47;;;;;;;1.20;1.03;;;;;;;;;;5073525;28;20449;-62
2023/12/21 06:01:14;;;;;;;1.20;1.10;;;;;;;;;;5073593;28;20478;-61
2023/12/21 06:03:41;;;;;;;1.20;1.10;;;;;;;;;;5073615;28;20534;-61
2023/12/21 06:06:08;;;;;;;3.60;0.90;;;;;;;;;;5073525;28;20531;-61
2023/12/21 06:08:36;;;;;;;1.03;0.93;;;;;;;;;;5073502;28;20798;-61
2023/12/21 06:11:03;;;;;;;0.90;0.90;;;;;;;;;;5073370;28;20448;-61
2023/12/21 06:13:30;;;;;;;2.17;0.97;;;;;;;;;;5073491;28;20531;-61
2023/12/21 06:15:57;;;;;;;1.10;1.00;;;;;;;;;;5073342;28;20528;-61
2023/12/21 06:18:24;;;;;;;0.97;0.87;;;;;;;;;;5073397;28;20534;-61
2023/12/21 06:20:51;;;;;;;0.97;0.87;;;;;;;;;;5073263;28;20471;-61
2023/12/21 06:23:18;;;;;;;0.70;0.70;;;;;;;;;;5073237;28;20800;-61
2023/12/21 06:25:47;;;;;;;2.83;0.80;;;;;;;;;;5073139;28;20534;-61
2023/12/21 06:28:13;;;;;;;1.90;1.03;;;;;;;;;;5073047;28;20540;-61
2023/12/21 06:30:40;;;;;;;0.70;0.70;;;;;;;;;;5073205;28;20885;-61
2023/12/21 06:33:07;;;;;;;1.10;0.70;;;;;;;;;;5073162;28;20443;-61
2023/12/21 06:35:36;;;;;;;0.93;0.90;;;;;;;;;;5072971;28;20539;-61
2023/12/21 06:38:03;;;;;;;0.80;0.80;;;;;;;;;;5073016;28;20877;-61
2023/12/21 06:40:30;;;;;;;0.70;0.70;;;;;;;;;;5072820;28;20443;-61
2023/12/21 06:42:58;;;;;;;1.00;0.70;;;;;;;;;;5072738;28;20877;-61
2023/12/21 06:45:25;;;;;;;0.73;0.70;;;;;;;;;;5073287;28;20538;-61
2023/12/21 06:47:52;;;;;;;0.70;0.70;;;;;;;;;;5072929;28;20534;-61
2023/12/21 06:50:20;;;;;;;0.70;0.70;;;;;;;;;;5072961;28;20444;-61
2023/12/21 06:52:47;;;;;;;1.77;0.70;;;;;;;;;;5072789;28;20448;-61
2023/12/21 06:55:14;;;;;;;0.70;0.70;;;;;;;;;;5072681;28;20562;-61
2023/12/21 06:57:41;;;;;;;0.70;0.60;;;;;;;;;;5072916;28;20479;-61
2023/12/21 07:00:11;;;;;;;0.80;0.70;;;;;;;;;;5072823;28;20443;-61
2023/12/21 07:02:38;;;;;;;0.80;0.70;;;;;;;;;;5072908;28;20570;-61
2023/12/21 07:05:05;;;;;;;0.70;0.60;;;;;;;;;;5072609;28;20538;-61
2023/12/21 07:07:32;;;;;;;2.17;0.90;;;;;;;;;;5072586;28;20860;-61
2023/12/21 07:09:59;;;;;;;0.90;0.80;;;;;;;;;;5072614;28;20881;-61
2023/12/21 07:12:27;;;;;;;0.80;0.70;;;;;;;;;;5072714;28;20517;-61
2023/12/21 07:14:54;;;;;;;1.63;0.90;;;;;;;;;;5072637;28;20440;-61
2023/12/21 07:17:22;;;;;;;0.80;0.80;;;;;;;;;;5072644;28;20776;-61
2023/12/21 07:19:49;;;;;;;1.03;0.93;;;;;;;;;;5072598;28;20439;-61
2023/12/21 07:22:16;;;;;;;1.77;0.93;;;;;;;;;;5072441;28;20528;-61
2023/12/21 07:24:43;;;;;;;0.77;0.77;;;;;;;;;;5072835;28;20444;-61
2023/12/21 07:27:10;;;;;;;0.93;0.90;;;;;;;;;;5072649;28;20450;-61
2023/12/21 07:29:37;;;;;;;1.80;1.00;;;;;;;;;;5072554;28;20451;-61
2023/12/21 07:32:04;;;;;;;0.80;0.80;;;;;;;;;;5072485;28;20451;-61
2023/12/21 07:34:32;;;;;;;1.47;0.93;;;;;;;;;;5072555;28;20534;-62
2023/12/21 07:36:59;;;;;;;1.73;0.80;;;;;;;;;;5072388;28;20493;-61
2023/12/21 07:39:26;;;;;;;1.03;0.73;;;;;;;;;;5072588;28;20459;-61
2023/12/21 07:41:53;;;;;;;0.73;0.73;;;;;;;;;;5072425;28;20528;-61
2023/12/21 07:44:20;;;;;;;1.83;0.80;;;;;;;;;;5072363;28;20538;-61
2023/12/21 07:46:47;;;;;;;1.30;0.83;;;;;;;;;;5072181;28;20531;-61
2023/12/21 07:49:14;;;;;;;2.30;0.90;;;;;;;;;;5072159;28;20453;-62
2023/12/21 07:51:42;;;;;;;1.67;0.90;;;;;;;;;;5072357;28;20447;-61
2023/12/21 07:54:09;;;;;;;1.50;1.40;;;;;;;;;;5072270;28;20475;-61
2023/12/21 07:56:36;;;;;;;1.37;1.10;;;;;;;;;;5074958;28;20558;-61
2023/12/21 07:59:06;;;;;;;1.47;1.10;;;;;;;;;;5075731;28;20881;-61
2023/12/21 08:01:33;;;;;;;2.70;1.30;;;;;;;;;;5075641;28;20474;-61
2023/12/21 08:04:00;;;;;;;1.73;1.63;;;;;;;;;;5075609;28;20526;-61
2023/12/21 08:06:27;;;;;;;1.67;1.20;;;;;;;;;;5075530;28;20449;-61
2023/12/21 08:08:56;;;;;;;1.43;1.33;;;;;;;;;;5075599;28;20449;-61
2023/12/21 08:11:23;;;;;;;2.60;2.40;;;;;;;;;;5075508;28;20455;-61
2023/12/21 08:13:50;;;;;;;2.27;1.60;;;;;;;;;;5075481;28;20621;-61
2023/12/21 08:16:17;;;;;;;1.47;1.37;;;;;;;;;;5075355;28;20443;-62
2023/12/21 08:18:45;;;;;;;1.20;1.10;;;;;;;;;;5075700;28;20452;-61
2023/12/21 08:21:12;;;;;;;1.30;1.20;;;;;;;;;;5075484;28;20943;-61
2023/12/21 08:23:40;;;;;;;1.27;1.17;;;;;;;;;;5075494;28;20457;-61
2023/12/21 08:26:08;;;;;;;1.43;1.00;;;;;;;;;;5075412;28;20452;-61
2023/12/21 08:28:35;;;;;;;0.90;0.90;;;;;;;;;;5075383;28;20493;-61
2023/12/21 08:31:03;;;;;;;1.73;1.00;;;;;;;;;;5075230;28;20496;-61
2023/12/21 08:33:30;;;;;;;1.10;1.00;;;;;;;;;;5075363;28;20443;-61
2023/12/21 08:35:57;;;;;;;1.33;1.23;;;;;;;;;;5075179;28;20471;-61
2023/12/21 08:38:24;;;;;;;1.60;1.13;;;;;;;;;;5074808;28;20530;-61
2023/12/21 08:40:51;;;;;;;1.10;1.00;;;;;;;;;;5075540;28;20439;-62
2023/12/21 08:43:19;;;;;;;1.20;1.00;;;;;;;;;;5074898;28;20622;-62
2023/12/21 08:45:46;;;;;;;2.30;1.10;;;;;;;;;;5074841;28;20538;-62
2023/12/21 08:48:13;;;;;;;1.03;0.93;;;;;;;;;;5075275;28;20450;-62
2023/12/21 08:50:40;;;;;;;1.00;0.90;;;;;;;;;;5075058;28;20447;-62
2023/12/21 08:53:07;;;;;;;1.47;0.90;;;;;;;;;;5074772;28;20530;-62
2023/12/21 08:55:34;;;;;;;0.77;0.77;;;;;;;;;;5074563;28;20566;-62
2023/12/21 08:58:01;;;;;;;2.13;1.80;;;;;;;;;;5074638;28;20449;-62
2023/12/21 09:00:29;;;;;;;0.90;0.90;;;;;;;;;;5074934;28;20447;-61
2023/12/21 09:02:57;;;;;;;0.80;0.70;;;;;;;;;;5074700;28;20483;-61
2023/12/21 09:05:24;;;;;;;1.60;1.00;;;;;;;;;;5074657;28;20444;-61
2023/12/21 09:07:51;;;;;;;0.90;0.90;;;;;;;;;;5074720;28;20451;-61
2023/12/21 09:10:18;;;;;;;1.90;0.80;;;;;;;;;;5074504;28;20569;-61
2023/12/21 09:12:45;;;;;;;0.80;0.80;;;;;;;;;;5074401;28;20646;-59
2023/12/21 09:15:12;;;;;;;2.43;1.30;;;;;;;;;;5074533;28;21017;-60
2023/12/21 09:17:41;;;;;;;1.60;1.50;;;;;;;;;;5074522;28;20532;-61
2023/12/21 09:20:09;;;;;;;2.43;2.23;;;;;;;;;;5074133;28;20939;-61
2023/12/21 09:22:37;;;;;;;1.30;1.20;;;;;;;;;;5074062;28;20475;-60
2023/12/21 09:25:04;;;;;;;1.10;1.00;;;;;;;;;;5074088;28;20939;-60
2023/12/21 09:27:32;;;;;;;1.60;1.50;;;;;;;;;;5074409;28;20463;-60
2023/12/21 09:29:59;;;;;;;1.77;1.50;;;;;;;;;;5074323;28;20475;-60
2023/12/21 09:32:26;;;;;;;1.60;1.50;;;;;;;;;;5073968;28;20497;-61
2023/12/21 09:34:54;;;;;;;1.20;1.10;;;;;;;;;;5074033;28;20728;-60
2023/12/21 09:37:21;;;;;;;2.83;2.03;;;;;;;;;;5073864;28;21023;-60
2023/12/21 09:39:49;;;;;;;2.40;1.20;;;;;;;;;;5071831;28;20542;-61
2023/12/21 09:42:17;;;;;;;0.80;0.80;;;;;;;;;;5073733;28;20556;-61
2023/12/21 09:44:44;;;;;;;0.90;0.90;;;;;;;;;;5060736;28;20538;-60
2023/12/21 09:47:13;;;;;;;0.90;0.90;;;;;;;;;;5053814;28;20454;-60
2023/12/21 09:49:41;;;;;;;1.10;1.00;;;;;;;;;;5052717;28;20493;-60
2023/12/21 09:52:09;;;;;;;0.80;0.70;;;;;;;;;;5053386;28;20444;-60
2023/12/21 09:54:37;;;;;;;0.90;0.80;;;;;;;;;;5060460;28;20513;-60
2023/12/21 09:57:05;;;;;;;0.90;0.90;;;;;;;;;;5059538;28;20447;-60
2023/12/21 09:59:33;;;;;;;1.33;0.70;;;;;;;;;;5059413;28;20448;-61
2023/12/21 10:02:00;;;;;;;1.00;0.90;;;;;;;;;;5058502;28;20579;-60
2023/12/21 10:04:27;;;;;;;1.50;0.70;;;;;;;;;;5058939;28;20539;-60
2023/12/21 10:06:54;;;;;;;1.37;1.27;;;;;;;;;;5057230;28;20471;-61
2023/12/21 10:09:22;;;;;;;2.70;1.00;;;;;;;;;;5060210;28;20455;-63
2023/12/21 10:11:50;;;;;;;0.70;0.63;;;;;;;;;;5058546;28;20807;-61
2023/12/21 10:14:17;;;;;;;1.60;0.70;;;;;;;;;;5058841;28;20451;-62
2023/12/21 10:16:44;;;;;;;0.60;0.60;;;;;;;;;;5060575;28;20451;-59
2023/12/21 10:19:11;;;;;;;0.70;0.70;;;;;;;;;;5058298;28;20448;-61
2023/12/21 10:21:39;;;;;;;1.67;1.00;;;;;;;;;;5059309;28;20459;-61
2023/12/21 10:24:07;;;;;;;1.30;1.20;;;;;;;;;;5058278;28;20974;-61
2023/12/21 10:26:42;;;;;;;0.90;0.90;;;;;;;;;;5059143;28;20453;-62
2023/12/21 10:29:09;;;;;;;2.77;0.80;;;;;;;;;;5058644;28;20546;-63
2023/12/21 10:31:35;;;;;;;1.43;1.07;;;;;;;;;;5056480;28;20451;-62
2023/12/21 10:34:03;;;;;;;0.80;0.73;;;;;;;;;;5060298;28;20781;-62
2023/12/21 10:36:32;;;;;;;1.53;1.10;;;;;;;;;;5057664;28;20443;-62
2023/12/21 10:38:59;;;;;;;0.90;0.90;;;;;;;;;;5059211;28;20455;-62
2023/12/21 10:41:26;;;;;;;0.67;0.60;;;;;;;;;;5057500;28;20454;-62
2023/12/21 10:43:55;;;;;;;0.80;0.77;;;;;;;;;;5058790;28;20495;-63
2023/12/21 10:46:23;;;;;;;0.60;0.53;;;;;;;;;;5057438;28;20458;-61
2023/12/21 10:48:50;;;;;;;0.80;0.50;;;;;;;;;;5061162;28;20460;-62
2023/12/21 10:51:18;;;;;;;0.60;0.60;;;;;;;;;;5058089;28;20447;-64
2023/12/21 10:53:45;;;;;;;0.70;0.70;;;;;;;;;;5060091;28;20448;-66
2023/12/21 10:56:12;;;;;;;3.80;0.70;;;;;;;;;;5057762;28;20555;-64
2023/12/21 10:58:39;;;;;;;0.70;0.60;;;;;;;;;;5060038;28;20892;-63
2023/12/21 11:01:08;;;;;;;0.73;0.60;;;;;;;;;;5058939;28;20448;-62
2023/12/21 11:03:35;;;;;;;0.80;0.60;;;;;;;;;;5059157;28;21092;-58
2023/12/21 11:06:03;;;;;;;0.80;0.60;;;;;;;;;;5056040;28;20935;-63
2023/12/21 11:08:30;;;;;;;0.80;0.60;;;;;;;;;;5059293;28;21070;-60
2023/12/21 11:10:58;;;;;;;0.77;0.63;;;;;;;;;;5056514;28;20448;-60
2023/12/21 11:13:25;;;;;;;1.43;0.60;;;;;;;;;;5060391;28;20925;-61
2023/12/21 11:15:51;;;;;;;2.03;0.60;;;;;;;;;;5057634;28;20504;-61
2023/12/21 11:18:22;;;;;;;0.70;0.57;;;;;;;;;;5058659;28;20453;-65
2023/12/21 11:20:51;;;;;;;0.73;0.50;;;;;;;;;;5058373;28;20522;-61
2023/12/21 11:23:18;;;;;;;0.73;0.60;;;;;;;;;;5060348;28;20479;-59
2023/12/21 11:25:45;;;;;;;0.70;0.50;;;;;;;;;;5055244;28;20452;-63
2023/12/21 11:28:12;;;;;;;0.60;0.50;;;;;;;;;;5058105;28;20957;-60
2023/12/21 11:30:39;;;;;;;0.70;0.60;;;;;;;;;;5057523;28;20542;-61
2023/12/21 11:33:06;;;;;;;2.77;2.50;;;;;;;;;;5063436;28;20457;-62
2023/12/21 11:35:35;;;;;;;0.80;0.80;;;;;;;;;;5062071;28;20483;-62
2023/12/21 11:38:02;;;;;;;3.30;3.00;;;;;;;;;;5061748;28;20462;-61
2023/12/21 11:40:30;;;;;;;3.90;0.80;;;;;;;;;;5059521;28;20826;-67
2023/12/21 11:42:59;;;;;;;1.00;0.90;;;;;;;;;;5064464;28;20812;-62
2023/12/21 11:45:26;;;;;;;1.47;1.00;;;;;;;;;;5062336;28;20451;-62
2023/12/21 11:47:54;;;;;;;1.57;1.00;;;;;;;;;;5063851;28;20483;-61
2023/12/21 11:50:23;;;;;;;1.10;1.00;;;;;;;;;;5063072;28;20456;-61
2023/12/21 11:52:51;;;;;;;0.90;0.80;;;;;;;;;;5061874;28;20474;-64
2023/12/21 11:55:25;;;;;;;2.43;0.93;;;;;;;;;;5061069;28;20487;-62
2023/12/21 11:58:06;;;;;;;1.30;0.77;;;;;;;;;;5057366;28;20538;-61
2023/12/21 12:00:33;;;;;;;1.30;1.20;;;;;;;;;;5062307;28;20447;-62
2023/12/21 12:03:01;;;;;;;1.27;0.90;;;;;;;;;;5061380;28;20831;-62
2023/12/21 12:05:29;;;;;;;0.70;0.60;;;;;;;;;;5074513;28;20447;-63
2023/12/21 12:07:58;;;;;;;0.80;0.70;;;;;;;;;;5073102;28;20443;-58
2023/12/21 12:10:25;;;;;;;0.90;0.70;;;;;;;;;;5072785;28;20482;-60
2023/12/21 12:12:52;;;;;;;0.60;0.60;;;;;;;;;;5073493;28;20454;-64
2023/12/21 12:15:20;;;;;;;1.00;1.00;;;;;;;;;;5082753;28;20439;-61
2023/12/21 12:17:46;;;;;;;2.07;0.70;;;;;;;;;;5084519;28;20435;-62
2023/12/21 12:20:14;;;;;;;0.90;0.70;;;;;;;;;;5082916;28;20873;-63
2023/12/21 12:22:42;;;;;;;0.70;0.70;;;;;;;;;;5076228;28;20827;-61
2023/12/21 12:25:11;;;;;;;0.90;0.80;;;;;;;;;;5075075;28;20442;-61
2023/12/21 12:27:38;;;;;;;1.53;1.00;;;;;;;;;;5075287;28;20432;-61
2023/12/21 12:30:05;;;;;;;0.80;0.80;;;;;;;;;;5072167;28;20835;-60
2023/12/21 12:32:32;;;;;;;0.60;0.60;;;;;;;;;;5074780;28;20439;-61
2023/12/21 12:34:59;;;;;;;0.60;0.60;;;;;;;;;;5074506;28;20956;-61
2023/12/21 12:37:26;;;;;;;1.00;0.80;;;;;;;;;;5074857;28;20184;-61
2023/12/21 12:39:53;;;;;;;1.00;1.00;;;;;;;;;;5074601;28;20527;-62
2023/12/21 12:42:21;;;;;;;1.50;1.40;;;;;;;;;;5073979;28;20538;-63
2023/12/21 12:44:50;;;;;;;1.70;0.90;;;;;;;;;;5074557;28;20446;-63
2023/12/21 12:47:19;;;;;;;0.60;0.50;;;;;;;;;;5074375;28;20483;-61
2023/12/21 12:49:47;;;;;;;0.80;0.77;;;;;;;;;;5071944;28;20938;-62
2023/12/21 12:52:16;;;;;;;1.17;0.70;;;;;;;;;;5074520;28;20799;-62
2023/12/21 12:54:43;;;;;;;0.80;0.80;;;;;;;;;;5074152;28;20475;-61
2023/12/21 12:57:11;;;;;;;1.37;0.80;;;;;;;;;;5074331;28;20475;-64
2023/12/21 12:59:39;;;;;;;0.80;0.70;;;;;;;;;;5073931;28;20444;-65
2023/12/21 13:02:06;;;;;;;0.80;0.63;;;;;;;;;;5074431;28;20443;-66
2023/12/21 13:04:33;;;;;;;1.70;1.17;;;;;;;;;;5073923;28;20490;-64
2023/12/21 13:07:00;;;;;;;1.57;0.80;;;;;;;;;;5074228;28;20439;-62
2023/12/21 13:09:30;;;;;;;1.07;0.97;;;;;;;;;;5074234;28;20501;-63
2023/12/21 13:11:57;;;;;;;1.83;1.73;;;;;;;;;;5074019;28;20436;-61
2023/12/21 13:14:24;;;;;;;0.83;0.67;;;;;;;;;;5073213;28;20475;-61
2023/12/21 13:16:54;;;;;;;4.50;0.90;;;;;;;;;;5074099;28;20446;-62
2023/12/21 13:19:22;;;;;;;1.20;0.70;;;;;;;;;;5073746;28;20447;-63
2023/12/21 13:21:49;;;;;;;1.00;0.60;;;;;;;;;;5073920;28;20527;-62
2023/12/21 13:24:16;;;;;;;3.13;0.70;;;;;;;;;;5073674;28;20533;-61
2023/12/21 13:26:43;;;;;;;1.47;0.70;;;;;;;;;;5071068;28;20824;-61
2023/12/21 13:29:11;;;;;;;0.70;0.60;;;;;;;;;;5074052;28;20879;-61
2023/12/21 13:31:38;;;;;;;0.90;0.80;;;;;;;;;;5073653;28;20484;-62
2023/12/21 13:34:07;;;;;;;1.23;0.70;;;;;;;;;;5073309;28;20541;-61
2023/12/21 13:36:34;;;;;;;1.87;1.00;;;;;;;;;;5071029;28;20521;-59
2023/12/21 13:39:02;;;;;;;1.13;0.70;;;;;;;;;;5073494;28;20486;-59
2023/12/21 13:41:29;;;;;;;1.73;1.10;;;;;;;;;;5073337;28;20819;-62
2023/12/21 13:43:56;;;;;;;1.57;0.90;;;;;;;;;;5073423;28;20466;-62
2023/12/21 13:46:24;;;;;;;1.53;1.43;;;;;;;;;;5073491;28;20436;-62
2023/12/21 13:48:51;;;;;;;2.40;0.80;;;;;;;;;;5073338;28;20439;-60
2023/12/21 13:51:19;;;;;;;1.33;1.20;;;;;;;;;;5073297;28;20439;-63
2023/12/21 13:53:46;;;;;;;1.20;1.10;;;;;;;;;;5072460;28;20923;-61
2023/12/21 13:56:13;;;;;;;1.27;1.20;;;;;;;;;;5072936;28;20980;-61
2023/12/21 13:58:41;;;;;;;1.20;1.10;;;;;;;;;;5072453;28;20440;-60
2023/12/21 14:01:07;;;;;;;1.00;0.77;;;;;;;;;;5072251;28;20490;-60
2023/12/21 14:03:34;;;;;;;0.67;0.60;;;;;;;;;;5072857;28;20605;-61
2023/12/21 14:06:02;;;;;;;0.80;0.60;;;;;;;;;;5073133;28;20475;-60
2023/12/21 14:08:30;;;;;;;0.97;0.80;;;;;;;;;;5072846;28;20444;-60
2023/12/21 14:10:57;;;;;;;1.50;0.70;;;;;;;;;;5072862;28;20943;-60
2023/12/21 14:13:24;;;;;;;1.17;0.90;;;;;;;;;;5072939;28;20538;-60
2023/12/21 14:15:52;;;;;;;0.73;0.70;;;;;;;;;;5072934;28;20838;-61
2023/12/21 14:18:19;;;;;;;0.93;0.60;;;;;;;;;;5072789;28;20440;-60
2023/12/21 14:20:51;;;;;;;0.97;0.87;;;;;;;;;;5072686;28;20538;-61
2023/12/21 14:23:19;;;;;;;0.83;0.70;;;;;;;;;;5070623;28;20455;-60
2023/12/21 14:25:47;;;;;;;1.97;1.30;;;;;;;;;;5072811;28;20448;-60
2023/12/21 14:28:14;;;;;;;1.43;1.20;;;;;;;;;;5072760;28;20485;-60
2023/12/21 14:30:41;;;;;;;0.87;0.63;;;;;;;;;;5072333;28;20443;-60
2023/12/21 14:33:08;;;;;;;0.70;0.70;;;;;;;;;;5072627;28;20543;-61
2023/12/21 14:35:35;;;;;;;1.37;1.27;;;;;;;;;;5072500;28;20439;-60
2023/12/21 14:38:03;;;;;;;0.90;0.77;;;;;;;;;;5072664;28;20439;-61
2023/12/21 14:40:30;;;;;;;0.87;0.77;;;;;;;;;;5072623;28;20451;-60
2023/12/21 14:42:59;;;;;;;0.80;0.70;;;;;;;;;;5072439;28;20526;-60